createdAt,value
2023-03-20T00:00:52.190Z,1.55
2023-03-20T00:03:21.709Z,1.88
2023-03-20T00:05:52.252Z,1.52
2023-03-20T00:08:20.241Z,1.48
2023-03-20T00:10:51.060Z,1.58
2023-03-20T00:13:26.222Z,1.80
2023-03-20T00:15:56.889Z,1.50
2023-03-20T00:18:26.932Z,1.75
2023-03-20T00:20:54.222Z,1.80
2023-03-20T00:23:22.043Z,1.70
2023-03-20T00:25:49.269Z,1.73
2023-03-20T00:28:46.495Z,1.70
2023-03-20T00:31:26.866Z,1.73
2023-03-20T00:33:56.470Z,1.63
2023-03-20T00:36:24.274Z,1.63
2023-03-20T00:38:54.855Z,1.50
2023-03-20T00:41:24.278Z,1.33
2023-03-20T00:43:58.497Z,1.40
2023-03-20T00:46:31.455Z,1.60
2023-03-20T00:48:58.726Z,1.25
2023-03-20T00:51:26.110Z,1.38
2023-03-20T00:53:53.659Z,1.63
2023-03-20T00:56:42.820Z,1.15
2023-03-20T00:59:17.400Z,1.42
2023-03-20T01:01:46.498Z,1.30
2023-03-20T01:04:19.912Z,1.50
2023-03-20T01:06:52.995Z,1.45
2023-03-20T01:09:22.836Z,2.10
2023-03-20T01:11:51.097Z,1.65
2023-03-20T01:14:23.675Z,1.90
2023-03-20T01:16:51.011Z,1.60
2023-03-20T01:19:18.222Z,1.20
2023-03-20T01:21:54.996Z,1.65
2023-03-20T01:24:24.985Z,1.70
2023-03-20T01:26:55.197Z,1.70
2023-03-20T01:29:27.972Z,1.55
2023-03-20T01:31:57.753Z,2.20
2023-03-20T01:34:28.275Z,2.20
2023-03-20T01:36:59.511Z,2.80
2023-03-20T01:39:36.280Z,2.30
2023-03-20T01:42:06.172Z,2.85
2023-03-20T01:44:36.702Z,3.53
2023-03-20T01:47:16.120Z,3.55
2023-03-20T01:50:24.394Z,3.50
2023-03-20T01:53:17.460Z,3.28
2023-03-20T01:55:56.597Z,3.65
2023-03-20T01:58:36.372Z,3.40
2023-03-20T02:01:06.609Z,3.17
2023-03-20T02:03:34.875Z,3.33
2023-03-20T02:06:06.839Z,3.25
2023-03-20T02:08:54.186Z,3.83
2023-03-20T02:11:25.719Z,4.07
2023-03-20T02:13:56.178Z,4.03
2023-03-20T02:16:28.797Z,4.05
2023-03-20T02:19:19.311Z,3.97
2023-03-20T02:22:07.914Z,4.25
2023-03-20T02:24:54.687Z,3.45
2023-03-20T02:27:47.621Z,3.50
2023-03-20T02:30:37.073Z,4.35
2023-03-20T02:33:22.911Z,3.72
2023-03-20T02:36:29.137Z,4.18
2023-03-20T02:39:11.923Z,3.60
2023-03-20T02:41:42.053Z,4.60
2023-03-20T02:44:12.756Z,4.03
2023-03-20T02:46:54.430Z,4.68
2023-03-20T02:49:46.583Z,5.05
2023-03-20T02:52:24.523Z,4.07
2023-03-20T02:54:55.030Z,4.40
2023-03-20T02:57:28.093Z,5.05
2023-03-20T03:00:27.106Z,3.92
2023-03-20T03:03:18.881Z,4.68
2023-03-20T03:06:39.108Z,4.82
2023-03-20T03:09:17.679Z,5.80
2023-03-20T03:12:01.359Z,4.15
2023-03-20T03:14:29.866Z,4.65
2023-03-20T03:17:00.487Z,4.13
2023-03-20T03:19:29.756Z,3.40
2023-03-20T03:21:57.115Z,4.40
2023-03-20T03:24:44.457Z,3.60
2023-03-20T03:27:39.651Z,4.32
2023-03-20T03:30:28.300Z,3.95
2023-03-20T03:33:19.638Z,3.67
2023-03-20T03:35:50.095Z,3.70
2023-03-20T03:39:05.547Z,3.20
2023-03-20T03:41:43.059Z,3.00
2023-03-20T03:44:15.598Z,3.15
2023-03-20T03:49:29.512Z,2.83
2023-03-20T03:52:03.894Z,2.88
2023-03-20T03:54:43.922Z,3.38
2023-03-20T03:57:54.389Z,3.80
2023-03-20T04:00:25.520Z,3.42
2023-03-20T04:02:56.321Z,3.85
2023-03-20T04:05:27.056Z,4.00
2023-03-20T04:07:56.438Z,4.45
2023-03-20T04:10:24.084Z,3.63
2023-03-20T04:12:51.344Z,4.10
2023-03-20T04:15:20.540Z,3.85
2023-03-20T04:17:48.468Z,3.28
2023-03-20T04:20:17.612Z,3.97
2023-03-20T04:22:46.941Z,4.25
2023-03-20T04:25:20.640Z,3.40
2023-03-20T04:27:49.695Z,2.90
2023-03-20T04:30:39.666Z,2.80
2023-03-20T04:33:34.898Z,2.75
2023-03-20T04:36:21.721Z,3.10
2023-03-20T04:38:54.604Z,2.28
2023-03-20T04:41:23.708Z,2.58
2023-03-20T04:43:54.671Z,2.03
2023-03-20T04:46:23.668Z,1.70
2023-03-20T04:48:54.382Z,2.10
2023-03-20T04:51:22.301Z,2.50
2023-03-20T04:53:51.387Z,2.67
2023-03-20T04:56:19.335Z,2.58
2023-03-20T04:58:50.858Z,2.28
2023-03-20T05:01:20.997Z,2.60
2023-03-20T05:03:48.459Z,2.97
2023-03-20T05:06:21.220Z,2.92
2023-03-20T05:08:54.655Z,2.55
2023-03-20T05:11:22.275Z,3.40
2023-03-20T05:13:56.551Z,3.08
2023-03-20T05:16:45.023Z,3.10
2023-03-20T05:19:31.290Z,2.83
2023-03-20T05:22:19.432Z,3.45
2023-03-20T05:25:22.409Z,3.22
2023-03-20T05:28:22.912Z,3.03
2023-03-20T05:31:10.357Z,2.67
2023-03-20T05:33:56.313Z,2.95
2023-03-20T05:36:49.517Z,3.03
2023-03-20T05:39:28.486Z,3.05
2023-03-20T05:42:34.129Z,3.30
2023-03-20T05:45:36.676Z,3.38
2023-03-20T05:48:30.121Z,3.38
2023-03-20T05:51:23.158Z,3.60
2023-03-20T05:54:10.611Z,3.13
2023-03-20T05:56:59.032Z,4.07
2023-03-20T05:59:46.765Z,3.63
2023-03-20T06:02:32.501Z,3.53
2023-03-20T06:05:12.266Z,4.00
2023-03-20T06:07:50.562Z,3.25
2023-03-20T06:10:20.901Z,3.42
2023-03-20T06:12:50.368Z,3.83
2023-03-20T06:15:19.821Z,3.95
2023-03-20T06:17:55.888Z,4.25
2023-03-20T06:20:24.740Z,3.42
2023-03-20T06:22:53.098Z,3.72
2023-03-20T06:25:24.145Z,4.45
2023-03-20T06:27:54.738Z,4.30
2023-03-20T06:30:25.460Z,9.13
2023-03-20T06:32:56.936Z,6.75
2023-03-20T06:35:35.002Z,5.72
2023-03-20T06:38:02.995Z,17.20
2023-03-20T06:40:32.181Z,5.75
2023-03-20T06:43:00.442Z,5.95
2023-03-20T06:45:41.534Z,5.00
2023-03-20T06:48:24.184Z,5.07
2023-03-20T06:50:53.187Z,5.25
2023-03-20T06:53:23.018Z,4.80
2023-03-20T06:56:05.312Z,4.20
2023-03-20T06:58:35.124Z,4.22
2023-03-20T07:01:03.402Z,5.30
2023-03-20T07:03:30.768Z,5.45
2023-03-20T07:05:59.149Z,4.38
2023-03-20T07:08:29.461Z,5.57
2023-03-20T07:11:00.755Z,4.93
2023-03-20T07:13:29.664Z,4.93
2023-03-20T07:16:04.829Z,5.45
2023-03-20T07:18:38.291Z,5.30
2023-03-20T07:21:08.367Z,6.00
2023-03-20T07:23:36.682Z,5.25
2023-03-20T07:26:05.632Z,6.20
2023-03-20T07:28:34.175Z,6.45
2023-03-20T07:31:30.076Z,5.97
2023-03-20T07:34:08.289Z,6.35
2023-03-20T07:36:35.938Z,5.65
2023-03-20T07:39:11.530Z,5.88
2023-03-20T07:41:41.585Z,6.18
2023-03-20T07:44:11.140Z,6.38
2023-03-20T07:46:54.392Z,5.95
2023-03-20T07:49:23.784Z,5.25
2023-03-20T07:51:51.536Z,5.45
2023-03-20T07:54:19.398Z,5.68
2023-03-20T07:56:53.605Z,4.93
2023-03-20T07:59:20.966Z,5.05
2023-03-20T08:01:51.006Z,6.63
2023-03-20T08:04:22.216Z,4.75
2023-03-20T08:06:50.927Z,5.03
2023-03-20T08:09:19.212Z,5.13
2023-03-20T08:11:46.318Z,4.68
2023-03-20T08:14:13.692Z,3.20
2023-03-20T08:16:41.043Z,3.45
2023-03-20T08:19:08.666Z,3.17
2023-03-20T08:21:36.187Z,3.25
2023-03-20T08:24:04.385Z,2.42
2023-03-20T08:26:34.692Z,4.45
2023-03-20T08:29:01.824Z,5.22
2023-03-20T08:31:29.064Z,5.15
2023-03-20T08:33:57.182Z,5.28
2023-03-20T08:36:24.804Z,6.18
2023-03-20T08:38:52.137Z,5.53
2023-03-20T08:41:22.712Z,4.50
2023-03-20T08:43:52.233Z,4.85
2023-03-20T08:46:19.542Z,5.25
2023-03-20T08:48:46.634Z,5.30
2023-03-20T08:51:16.996Z,4.65
2023-03-20T08:53:44.305Z,5.07
2023-03-20T08:56:12.274Z,3.22
2023-03-20T08:58:39.417Z,3.42
2023-03-20T09:01:08.703Z,3.20
2023-03-20T09:03:36.947Z,3.05
2023-03-20T09:06:11.310Z,3.05
2023-03-20T09:08:38.956Z,3.00
2023-03-20T09:11:07.350Z,2.55
2023-03-20T09:13:37.841Z,2.95
2023-03-20T09:16:07.932Z,3.03
2023-03-20T09:18:35.055Z,3.58
2023-03-20T09:21:04.526Z,2.17
2023-03-20T09:23:32.409Z,2.72
2023-03-20T09:25:59.685Z,3.53
2023-03-20T09:28:27.491Z,2.83
2023-03-20T09:30:59.277Z,2.20
2023-03-20T09:33:27.160Z,5.38
2023-03-20T09:35:54.724Z,5.95
2023-03-20T09:38:27.919Z,5.80
2023-03-20T09:41:27.562Z,5.18
2023-03-20T09:44:03.935Z,5.60
2023-03-20T09:47:19.476Z,6.00
2023-03-20T09:50:26.123Z,6.32
2023-03-20T09:53:27.908Z,6.60
2023-03-20T09:55:56.730Z,6.65
2023-03-20T09:58:32.525Z,6.10
2023-03-20T10:01:04.910Z,5.30
2023-03-20T10:03:49.824Z,5.68
2023-03-20T10:06:18.164Z,5.70
2023-03-20T10:08:46.474Z,6.40
2023-03-20T10:11:24.747Z,6.20
2023-03-20T10:13:57.993Z,6.65
2023-03-20T10:17:09.486Z,5.22
2023-03-20T10:19:59.242Z,6.40
2023-03-20T10:22:46.255Z,5.43
2023-03-20T10:25:30.751Z,4.55
2023-03-20T10:28:20.418Z,4.82
2023-03-20T10:31:26.099Z,5.80
2023-03-20T10:34:15.013Z,4.93
2023-03-20T10:36:54.361Z,5.28
2023-03-20T10:39:34.298Z,5.93
2023-03-20T10:42:05.167Z,5.30
2023-03-20T10:44:39.470Z,5.57
2023-03-20T10:47:13.297Z,6.25
2023-03-20T10:49:47.847Z,7.80
2023-03-20T10:52:31.349Z,8.65
2023-03-20T10:55:08.784Z,7.90
2023-03-20T10:57:42.483Z,6.85
2023-03-20T11:00:28.233Z,6.68
2023-03-20T11:02:57.829Z,6.57
2023-03-20T11:05:38.465Z,6.53
2023-03-20T11:08:14.186Z,6.65
2023-03-20T11:10:51.403Z,6.55
2023-03-20T11:13:46.439Z,6.97
2023-03-20T11:16:35.557Z,6.95
2023-03-20T11:19:09.128Z,6.40
2023-03-20T11:21:51.101Z,6.18
2023-03-20T11:25:00.465Z,7.07
2023-03-20T11:27:38.440Z,6.88
2023-03-20T11:30:27.688Z,7.00
2023-03-20T11:33:03.863Z,6.28
2023-03-20T11:35:34.803Z,6.45
2023-03-20T11:38:18.677Z,5.70
2023-03-20T11:40:52.585Z,6.60
2023-03-20T11:43:22.944Z,5.97
2023-03-20T11:46:02.891Z,7.28
2023-03-20T11:48:42.350Z,6.97
2023-03-20T11:51:15.106Z,7.07
2023-03-20T11:53:48.450Z,8.02
2023-03-20T11:59:35.228Z,7.63
2023-03-20T12:02:44.255Z,7.60
2023-03-20T12:05:40.112Z,6.53
2023-03-20T12:08:18.913Z,7.07
2023-03-20T12:11:01.806Z,7.05
2023-03-20T12:13:40.618Z,6.35
2023-03-20T12:16:31.152Z,7.97
2023-03-20T12:19:19.680Z,7.15
2023-03-20T12:22:45.441Z,7.03
2023-03-20T12:25:31.291Z,7.00
2023-03-20T12:28:11.184Z,7.47
2023-03-20T12:30:56.756Z,6.05
2023-03-20T12:33:57.722Z,5.55
2023-03-20T12:36:44.275Z,5.25
2023-03-20T12:39:51.125Z,5.25
2023-03-20T12:42:41.201Z,5.30
2023-03-20T12:45:21.105Z,5.43
2023-03-20T12:48:26.233Z,5.85
2023-03-20T12:51:20.760Z,5.15
2023-03-20T12:54:22.637Z,5.18
2023-03-20T12:57:22.935Z,5.75
2023-03-20T13:00:08.664Z,4.63
2023-03-20T13:03:12.163Z,5.85
2023-03-20T13:06:22.977Z,4.40
2023-03-20T13:12:27.956Z,5.05
2023-03-20T13:15:23.154Z,4.93
2023-03-20T13:18:44.632Z,4.15
2023-03-20T13:21:27.477Z,4.38
2023-03-20T13:24:30.157Z,3.97
2023-03-20T13:27:33.546Z,3.97
2023-03-20T13:30:14.076Z,3.88
2023-03-20T13:33:19.600Z,5.00
2023-03-20T13:36:24.569Z,3.65
2023-03-20T13:39:20.966Z,3.88
2023-03-20T13:42:01.728Z,4.78
2023-03-20T13:44:35.172Z,4.70
2023-03-20T13:49:59.072Z,3.10
2023-03-20T13:52:45.389Z,2.83
2023-03-20T13:55:27.926Z,3.28
2023-03-20T13:58:39.689Z,3.20
2023-03-20T14:01:38.620Z,2.90
2023-03-20T14:04:32.400Z,3.42
2023-03-20T14:07:38.212Z,3.08
2023-03-20T14:10:45.417Z,2.90
2023-03-20T14:13:20.824Z,2.10
2023-03-20T14:16:05.639Z,2.90
2023-03-20T14:19:04.278Z,2.47
2023-03-20T14:21:37.027Z,2.38
2023-03-20T14:24:33.415Z,2.22
2023-03-20T14:27:36.711Z,1.95
2023-03-20T14:31:10.627Z,2.30
2023-03-20T14:34:13.403Z,2.03
2023-03-20T14:37:31.640Z,2.40
2023-03-20T14:40:21.122Z,3.28
2023-03-20T14:42:55.655Z,2.20
2023-03-20T14:45:51.708Z,2.47
2023-03-20T14:48:46.551Z,2.22
2023-03-20T14:51:48.457Z,2.30
2023-03-20T14:54:27.771Z,2.40
2023-03-20T14:57:27.425Z,2.28
2023-03-20T15:00:00.463Z,2.72
2023-03-20T15:02:37.109Z,2.53
2023-03-20T15:05:46.801Z,2.25
2023-03-20T15:08:30.595Z,2.20
2023-03-20T15:13:34.462Z,1.88
2023-03-20T15:16:09.525Z,2.10
2023-03-20T15:18:53.734Z,1.85
2023-03-20T15:21:48.747Z,2.35
2023-03-20T15:24:33.229Z,2.10
2023-03-20T15:27:14.075Z,2.05
2023-03-20T15:29:53.004Z,2.08
2023-03-20T15:32:36.972Z,2.03
2023-03-20T15:35:21.501Z,2.70
2023-03-20T15:37:56.429Z,2.08
2023-03-20T15:40:47.725Z,2.08
2023-03-20T15:43:38.454Z,1.92
2023-03-20T15:46:25.766Z,2.00
2023-03-20T15:49:00.512Z,2.25
2023-03-20T15:51:39.342Z,2.00
2023-03-20T15:54:08.261Z,1.90
2023-03-20T15:56:36.386Z,2.88
2023-03-20T15:59:05.689Z,2.13
2023-03-20T16:01:37.174Z,2.15
2023-03-20T16:04:04.764Z,2.15
2023-03-20T16:06:49.289Z,2.22
2023-03-20T16:09:17.867Z,2.05
2023-03-20T16:11:51.446Z,2.03
2023-03-20T16:14:34.748Z,2.05
2023-03-20T16:17:06.331Z,2.65
2023-03-20T16:19:34.233Z,2.63
2023-03-20T16:22:32.736Z,1.92
2023-03-20T16:25:02.323Z,2.40
2023-03-20T16:27:35.146Z,2.08
2023-03-20T16:30:25.377Z,2.28
2023-03-20T16:33:09.155Z,2.03
2023-03-20T16:38:41.021Z,1.80
2023-03-20T16:41:38.224Z,1.80
2023-03-20T16:44:36.609Z,2.17
2023-03-20T16:47:13.869Z,2.00
2023-03-20T16:49:47.239Z,2.28
2023-03-20T16:52:19.745Z,1.92
2023-03-20T16:54:55.618Z,2.72
2023-03-20T16:57:25.591Z,2.40
2023-03-20T17:00:21.368Z,2.15
2023-03-20T17:03:14.647Z,1.83
2023-03-20T17:06:17.333Z,2.22
2023-03-20T17:08:57.054Z,2.30
2023-03-20T17:11:39.980Z,2.25
2023-03-20T17:14:09.869Z,2.80
2023-03-20T17:16:44.623Z,2.50
2023-03-20T17:19:22.463Z,3.40
2023-03-20T17:21:57.479Z,3.00
2023-03-20T17:24:28.158Z,3.03
2023-03-20T17:27:05.655Z,2.88
2023-03-20T17:29:37.353Z,3.65
2023-03-20T17:32:29.199Z,3.25
2023-03-20T17:35:00.472Z,2.72
2023-03-20T17:37:38.662Z,2.33
2023-03-20T17:40:23.002Z,3.67
2023-03-20T17:42:54.378Z,2.80
2023-03-20T17:45:33.806Z,2.55
2023-03-20T17:48:33.876Z,2.63
2023-03-20T17:51:11.363Z,2.42
2023-03-20T17:53:38.654Z,2.30
2023-03-20T17:56:16.157Z,2.50
2023-03-20T17:58:49.253Z,2.80
2023-03-20T18:01:19.355Z,3.03
2023-03-20T18:03:47.762Z,2.63
2023-03-20T18:06:33.967Z,2.72
2023-03-20T18:09:02.111Z,1.90
2023-03-20T18:11:44.386Z,2.03
2023-03-20T18:14:12.534Z,2.13
2023-03-20T18:16:51.493Z,2.58
2023-03-20T18:19:30.879Z,2.65
2023-03-20T18:21:58.949Z,2.38
2023-03-20T18:24:27.483Z,2.65
2023-03-20T18:26:55.613Z,2.45
2023-03-20T18:29:25.989Z,2.58
2023-03-20T18:31:53.856Z,2.20
2023-03-20T18:34:23.872Z,2.55
2023-03-20T18:36:52.008Z,2.70
2023-03-20T18:39:33.941Z,2.92
2023-03-20T18:42:01.275Z,2.13
2023-03-20T18:44:31.447Z,2.92
2023-03-20T18:46:58.753Z,2.42
2023-03-20T18:49:25.885Z,2.70
2023-03-20T18:52:04.435Z,2.13
2023-03-20T18:54:38.960Z,2.10
2023-03-20T18:57:06.494Z,2.13
2023-03-20T18:59:37.196Z,2.30
2023-03-20T19:02:04.383Z,2.30
2023-03-20T19:04:33.234Z,2.10
2023-03-20T19:07:02.813Z,1.80
2023-03-20T19:09:33.244Z,2.42
2023-03-20T19:12:00.467Z,1.63
2023-03-20T19:14:30.071Z,2.08
2023-03-20T19:16:57.392Z,2.40
2023-03-20T19:19:24.859Z,4.13
2023-03-20T19:21:52.282Z,2.40
2023-03-20T19:24:21.888Z,2.13
2023-03-20T19:26:49.396Z,1.95
2023-03-20T19:29:18.241Z,2.30
2023-03-20T19:31:48.251Z,2.92
2023-03-20T19:34:44.452Z,1.70
2023-03-20T19:37:07.222Z,1.80
2023-03-20T19:39:34.491Z,2.80
2023-03-20T19:42:19.931Z,2.35
2023-03-20T19:44:49.000Z,2.00
2023-03-20T19:47:19.348Z,2.30
2023-03-20T19:49:48.005Z,2.13
2023-03-20T19:52:32.400Z,1.73
2023-03-20T19:55:05.681Z,1.95
2023-03-20T19:57:33.178Z,1.85
2023-03-20T20:01:11.070Z,2.05
2023-03-20T20:03:08.509Z,2.60
2023-03-20T20:05:37.891Z,2.15
2023-03-20T20:08:24.381Z,2.28
2023-03-20T20:10:56.718Z,2.63
2023-03-20T20:14:03.602Z,2.42
2023-03-20T20:16:35.171Z,2.38
2023-03-20T20:19:11.842Z,2.70
2023-03-20T20:24:47.631Z,1.75
2023-03-20T20:27:18.546Z,1.90
2023-03-20T20:30:06.449Z,1.65
2023-03-20T20:32:42.172Z,2.28
2023-03-20T20:35:55.825Z,1.90
2023-03-20T20:41:20.823Z,2.05
2023-03-20T20:44:16.094Z,1.67
2023-03-20T20:46:46.861Z,1.70
2023-03-20T20:49:19.931Z,1.33
2023-03-20T20:51:51.148Z,1.40
2023-03-20T20:54:21.661Z,1.88
2023-03-20T20:56:53.456Z,1.70
2023-03-20T20:59:26.816Z,2.03
2023-03-20T21:01:54.906Z,1.20
2023-03-20T21:04:24.004Z,1.60
2023-03-20T21:07:11.407Z,1.88
2023-03-20T21:09:46.023Z,2.72
2023-03-20T21:12:33.545Z,1.35
2023-03-20T21:15:07.283Z,1.70
2023-03-20T21:17:59.465Z,1.50
2023-03-20T21:20:27.601Z,1.45
2023-03-20T21:23:24.916Z,1.30
2023-03-20T21:26:07.255Z,1.42
2023-03-20T21:28:38.124Z,1.70
2023-03-20T21:31:25.198Z,1.42
2023-03-20T21:33:56.885Z,6.40
2023-03-20T21:36:27.862Z,1.65
2023-03-20T21:39:08.741Z,1.58
2023-03-20T21:41:51.825Z,1.70
2023-03-20T21:44:48.346Z,1.40
2023-03-20T21:48:09.305Z,1.80
2023-03-20T21:50:46.581Z,1.73
2023-03-20T21:54:17.677Z,1.23
2023-03-20T21:56:51.423Z,1.65
2023-03-20T21:59:53.848Z,1.52
2023-03-20T22:02:14.029Z,2.55
2023-03-20T22:08:46.865Z,1.50
2023-03-20T22:11:31.420Z,1.48
2023-03-20T22:20:33.283Z,1.88
2023-03-20T22:32:47.460Z,1.63
2023-03-20T22:35:54.392Z,1.45
2023-03-20T22:44:50.074Z,1.17
2023-03-20T22:47:09.574Z,1.63
2023-03-20T22:49:57.328Z,1.50
2023-03-20T22:52:38.323Z,1.50
2023-03-20T22:55:15.794Z,1.52
2023-03-20T22:58:03.995Z,1.40
2023-03-20T23:00:45.135Z,1.50
2023-03-20T23:03:33.390Z,1.60
2023-03-20T23:06:24.605Z,1.20
2023-03-20T23:08:58.313Z,1.13
2023-03-20T23:11:33.498Z,1.15
2023-03-20T23:14:18.155Z,1.15
2023-03-20T23:16:53.540Z,1.48
2023-03-20T23:19:37.776Z,4.97
2023-03-20T23:22:16.207Z,2.60
2023-03-20T23:24:57.295Z,1.30
2023-03-20T23:27:33.370Z,1.40
2023-03-20T23:32:55.777Z,2.42
2023-03-20T23:36:21.483Z,1.52
2023-03-20T23:39:11.717Z,2.08
2023-03-20T23:44:27.320Z,3.05
2023-03-20T23:47:03.338Z,2.97
2023-03-20T23:49:37.535Z,3.55
2023-03-20T23:52:07.357Z,3.50
2023-03-20T23:54:40.272Z,4.20
2023-03-20T23:57:07.750Z,3.80
2023-03-20T23:59:41.050Z,3.97
